Terminal Aerodrome Forecast
Issued by NWS Cleveland, OH

Home | Current Version | Previous Version | Graphics & Text | Print | Product List | Glossary On
Versions: 1 2 3 4 5 6 7 8 9 10 11 12 13 14 15 16 17 18 19 20
000
FTUS41 KCLE 141700
TAFERI
TAF
KERI 141737Z 1418/1518 36006KT P6SM SCT040
     FM150100 24003KT P6SM SCT040 BKN250
     FM151500 24008KT P6SM BKN040 OVC120=

USA.gov is the U.S. government's official web portal to all federal, state and local government web resources and services.